Date,TemperatureHighF,TemperatureAvgF,TemperatureLowF,DewpointHighF,DewpointAvgF,DewpointLowF,HumidityHigh,HumidityAvg,HumidityLow,PressureMaxIn,PressureMinIn,WindSpeedMaxMPH,WindSpeedAvgMPH,GustSpeedMaxMPH,PrecipitationSumIn
2013-8-1,87.2,75.4,61.6,67.7,63.4,55.5,95,70,36,30.07,29.89,8,2,10,0.00
2013-8-2,83.2,72.5,65.3,69.1,64.2,58.6,89,76,58,30.00,29.88,12,2,20,0.00
2013-8-3,79.8,70.6,62.0,61.1,57.9,54.3,89,66,44,30.17,30.00,8,2,11,0.00
2013-8-4,79.1,69.6,56.0,61.9,58.9,54.5,95,71,51,30.19,30.05,10,2,14,0.00
2013-8-5,83.8,72.5,63.1,73.4,67.0,61.0,94,83,69,30.04,29.83,7,1,14,0.00
2013-8-6,88.8,74.8,67.1,75.4,70.0,65.9,97,86,60,29.89,29.76,9,2,34,0.71
2013-8-7,80.7,73.2,66.7,68.4,65.8,62.7,97,79,56,29.99,29.78,15,3,19,0.01
2013-8-8,80.0,70.5,60.0,65.7,62.3,56.9,91,76,56,30.02,29.95,4,1,8,0.00
2013-8-9,80.6,72.1,63.7,69.6,63.3,57.6,95,75,53,30.12,30.00,8,2,15,0.00
2013-8-10,82.7,70.9,58.6,63.9,60.3,56.5,94,71,48,30.20,30.08,4,1,10,0.00
2013-8-11,85.3,74.6,63.2,67.4,63.2,58.6,86,69,48,30.12,29.98,7,3,14,0.00
2013-8-12,81.4,72.2,66.0,69.1,63.8,57.1,97,77,50,30.05,29.96,9,3,17,0.68
2013-8-13,77.0,67.2,56.2,63.1,57.6,54.7,96,73,48,30.17,30.05,6,1,10,0.00
2013-8-14,73.6,64.8,54.8,56.9,54.5,51.6,93,71,48,30.23,30.12,5,1,9,0.00
2013-8-15,69.0,62.5,58.0,59.8,56.0,53.4,94,80,68,30.16,30.10,6,1,14,0.08
2013-8-16,75.2,65.4,54.5,59.0,55.9,52.8,94,74,52,30.21,30.14,7,2,11,0.00
2013-8-17,78.7,67.3,53.9,62.0,57.1,53.0,97,72,48,30.23,30.12,7,1,12,0.00
2013-8-18,80.1,69.2,56.0,62.9,58.7,54.2,95,72,46,30.18,30.06,9,1,11,0.00
2013-8-19,82.8,70.6,60.2,67.7,62.6,57.8,93,77,55,30.09,29.97,12,2,16,0.00
2013-8-20,87.8,77.2,68.4,69.9,66.4,62.7,86,71,53,29.99,29.91,14,4,20,0.00
2013-8-21,90.5,79.9,71.6,70.7,68.4,66.4,84,69,51,29.99,29.93,9,4,22,0.00
2013-8-22,79.1,75.2,70.3,71.4,68.9,66.6,93,81,74,30.09,29.97,7,1,14,0.00
2013-8-23,85.9,75.3,66.2,74.6,70.1,65.3,98,85,63,30.10,30.00,9,3,13,0.00
2013-8-24,89.3,79.9,70.7,74.5,70.6,67.9,91,75,57,30.12,30.02,10,3,15,0.00
2013-8-25,93.2,82.2,72.0,72.6,69.1,65.8,82,66,44,30.14,30.03,15,4,22,0.00
2013-8-26,95.3,83.5,72.2,74.6,70.6,68.2,90,67,43,30.08,29.93,10,4,17,0.00
2013-8-27,94.8,84.8,76.6,72.6,70.5,68.9,78,64,47,29.94,29.84,14,5,23,0.00
2013-8-28,98.3,84.0,72.4,71.6,68.0,65.5,79,61,38,29.96,29.89,7,3,17,0.00
2013-8-29,92.1,81.2,69.5,75.6,71.4,66.4,90,73,55,30.01,29.89,5,1,14,0.00
2013-8-30,100.5,85.6,73.1,76.3,71.8,66.0,89,67,33,29.89,29.75,8,2,17,0.00
2013-8-31,91.7,79.6,67.9,73.6,67.8,61.1,95,71,40,29.82,29.74,6,2,9,0.00